Latest Weather Observations for Kuitpo

IDS60901

Issued at 9:01 pm CDT Friday 6 December 2019 (issued every 10 minutes, with the page automatically refreshed every 10 minutes)

About weather observations | Map of Adelaide area stations | Latest observations for Adelaide area | Other Formats
Station Details ID: 023887 Name: KUITPO FOREST RESERVE Lat: -35.17 Lon: 138.68 Height: 365.0 m
Data from the previous 72 hours. | See also: Recent months at Kuitpo
Date/Time
CDT
Temp
°C
App
Temp
°C
Dew
Point
°C
Rel
Hum
%
Delta-T
°C
Wind Press
QNH
hPa
Press
MSL
hPa
Rain since
9am
mm
Dir  Spd
km/h
Gust
km/h
Spd
kts
Gust
kts
06/09:00pm 11.2 7.8 7.5 78 1.8 SSE 15 24 8 13 1017.0 1015.9 0.0
06/08:30pm 11.4 8.3 7.3 76 2.0 S 13 22 7 12 1017.1 1016.0 0.0
06/08:00pm 12.4 9.1 7.9 74 2.3 SE 15 24 8 13 1016.8 1015.7 0.0
06/07:30pm 14.0 10.4 8.4 69 2.9 S 17 26 9 14 1016.4 1015.3 0.0
06/07:00pm 15.0 11.8 8.5 65 3.3 S 15 22 8 12 1016.0 1015.0 0.0
06/06:30pm 16.5 13.3 8.5 59 4.2 S 15 24 8 13 1015.7 1014.7 0.0
06/06:00pm 17.5 14.3 8.4 55 4.7 SSW 15 22 8 12 1015.8 1014.8 0.0
06/05:30pm 17.9 15.0 8.2 53 5.1 SSW 13 20 7 11 1015.1 1014.0 0.0
06/05:00pm 18.6 15.3 9.4 55 4.9 SSW 17 26 9 14 1015.0 1013.9 0.0
06/04:30pm 19.3 16.7 9.2 52 5.4 S 13 22 7 12 1014.6 1013.5 0.0
06/04:00pm 19.6 17.6 10.0 54 5.2 WSW 11 19 6 10 1014.9 1013.8 0.0
06/03:30pm 19.6 16.6 10.6 56 5.0 WSW 17 28 9 15 1014.9 1013.8 0.0
06/03:00pm 19.3 16.1 10.0 55 5.1 WSW 17 26 9 14 1015.2 1014.1 0.0
06/02:30pm 19.7 16.5 11.2 58 4.7 WSW 19 26 10 14 1015.1 1014.0 0.0
06/02:00pm 18.6 15.0 9.9 57 4.7 WSW 19 28 10 15 1015.4 1014.4 0.0
06/01:30pm 19.1 16.3 9.9 55 5.0 WSW 15 26 8 14 1015.3 1014.2 0.0
06/01:00pm 18.8 16.1 9.0 53 5.2 SSW 13 20 7 11 1015.7 1014.7 0.0
06/12:30pm 17.5 14.1 7.8 53 5.0 SW 15 20 8 11 1016.0 1015.0 0.0
06/12:00pm 16.5 13.9 9.2 62 3.8 SW 13 26 7 14 1016.0 1015.0 0.0
06/11:30am 15.9 13.1 8.4 61 3.9 S 13 22 7 12 1016.0 1015.0 0.0
06/11:00am 14.8 12.0 8.7 67 3.2 S 13 20 7 11 1016.2 1015.1 0.0
06/10:30am 15.6 13.3 9.1 65 3.4 SSW 11 15 6 8 1016.2 1015.1 0.0
06/10:00am 14.8 12.0 8.7 67 3.2 S 13 22 7 12 1016.2 1015.1 0.0
06/09:30am 14.3 11.5 8.7 69 2.9 S 13 24 7 13 1015.8 1014.8 0.0
06/09:00am 13.2 10.8 8.5 73 2.4 S 11 19 6 10 1015.4 1014.4 0.0
06/08:30am 11.1 8.2 8.0 81 1.5 SSW 13 19 7 10 1015.1 1014.0 0.0
06/08:00am 10.9 8.5 8.5 85 1.2 SSW 11 19 6 10 1015.1 1014.0 0.0
06/07:30am 10.1 7.6 8.4 89 0.8 SSW 11 20 6 11 1014.3 1013.2 0.0
06/07:00am 9.5 7.0 8.3 92 0.6 SSW 11 17 6 9 1014.0 1012.9 0.0
06/06:30am 8.4 6.1 7.3 93 0.5 SW 9 11 5 6 1013.7 1012.6 0.0
06/06:00am 8.6 6.7 7.4 92 0.6 SW 7 13 4 7 1013.1 1012.1 0.0
06/05:30am 8.7 6.5 7.8 94 0.4 S 9 15 5 8 1013.0 1012.0 0.0
06/05:00am 8.6 6.7 7.5 93 0.5 S 7 11 4 6 1012.8 1011.7 0.0
06/04:30am 9.1 7.0 8.2 94 0.4 S 9 17 5 9 1012.7 1011.6 0.0
06/04:00am 9.0 7.2 7.9 93 0.5 SSE 7 11 4 6 1012.5 1011.4 0.0
06/03:30am 9.1 6.6 8.0 93 0.5 SSE 11 17 6 9 1012.6 1011.5 0.0
06/03:00am 9.4 7.3 8.3 93 0.5 SSE 9 15 5 8 1012.8 1011.7 0.0
06/02:30am 9.7 7.3 8.6 93 0.5 SSE 11 17 6 9 1012.8 1011.7 0.0
06/02:00am 9.8 7.8 8.6 92 0.6 SSE 9 17 5 9 1012.8 1011.7 0.0
06/01:30am 9.9 7.5 8.7 92 0.6 SE 11 17 6 9 1012.9 1011.9 0.0
06/01:00am 10.2 8.6 8.8 91 0.7 SE 7 11 4 6 1013.2 1012.2 0.0
06/12:30am 10.6 8.3 8.9 89 0.9 SSE 11 19 6 10 1013.5 1012.4 0.0
06/12:00am 11.2 8.7 9.6 90 0.8 SSE 13 20 7 11 1013.7 1012.6 0.0
 
Date/Time
CDT
Temp
°C
App
Temp
°C
Dew
Point
°C
Rel
Hum
%
Delta-T
°C
Wind Press
QNH
hPa
Press
MSL
hPa
Rain since
9am
mm
Dir  Spd
km/h
Gust
km/h
Spd
kts
Gust
kts
05/11:30pm 11.0 9.2 9.6 91 0.7 SSE 9 19 5 10 1013.7 1012.6 0.0
05/11:00pm 11.0 8.9 9.8 92 0.6 SE 11 19 6 10 1013.6 1012.5 0.0
05/10:30pm 11.2 8.8 10.1 93 0.6 SSE 13 20 7 11 1013.7 1012.6 0.0
05/10:00pm 11.4 8.6 10.1 92 0.7 SSE 15 22 8 12 1013.5 1012.4 0.0
05/09:30pm 11.9 9.1 10.1 89 0.9 SSE 15 20 8 11 1013.2 1012.2 0.0
05/09:00pm 13.0 10.8 10.7 86 1.2 SSE 13 20 7 11 1012.9 1011.9 0.0
05/08:30pm 14.4 13.1 11.2 81 1.7 SE 9 13 5 7 1012.6 1011.5 0.0
05/08:00pm 16.5 15.4 12.1 75 2.5 WSW 9 15 5 8 1012.4 1011.3 0.0
05/07:30pm 17.8 16.6 12.7 72 2.9 WSW 11 17 6 9 1012.5 1011.4 0.0
05/07:00pm 18.4 17.1 12.4 68 3.4 WSW 11 17 6 9 1012.2 1011.1 0.0
05/06:30pm 18.9 17.6 12.6 67 3.6 WSW 11 17 6 9 1012.0 1010.9 0.0
05/06:00pm 19.4 17.6 12.2 63 4.1 SW 13 19 7 10 1012.0 1010.9 0.0
05/05:30pm 19.8 18.0 12.1 61 4.4 WSW 13 24 7 13 1012.2 1011.1 0.0
05/05:00pm 20.1 17.7 11.3 57 4.9 WSW 15 20 8 11 1012.2 1011.1 0.0
05/04:30pm 20.5 16.9 8.2 45 6.5 W 17 24 9 13 1012.3 1011.2 0.0
05/04:00pm 20.2 16.3 8.5 47 6.2 WSW 19 30 10 16 1012.5 1011.4 0.0
05/03:30pm 20.2 16.3 9.5 50 5.8 WSW 20 37 11 20 1012.6 1011.5 0.0
05/03:00pm 19.8 14.9 10.0 53 5.4 W 26 37 14 20 1012.6 1011.5 0.0
05/02:30pm 20.3 16.0 9.2 49 6.0 W 22 39 12 21 1012.5 1011.4 0.0
05/02:00pm 19.9 15.2 9.2 50 5.8 W 24 37 13 20 1012.8 1011.7 0.0
05/01:30pm 19.9 15.1 8.9 49 5.9 W 24 41 13 22 1012.9 1011.9 0.0
05/01:00pm 19.7 15.2 9.9 53 5.3 W 24 35 13 19 1013.1 1012.1 0.0
05/12:30pm 18.8 13.9 9.8 56 4.9 W 26 37 14 20 1013.2 1012.2 0.0
05/12:00pm 18.0 13.1 8.6 54 4.9 W 24 39 13 21 1013.1 1012.1 0.0
05/11:30am 17.9 13.5 10.5 62 4.0 W 24 37 13 20 1013.0 1012.0 0.0
05/11:00am 17.3 13.2 11.3 68 3.3 W 24 39 13 21 1013.0 1012.0 0.0
05/10:30am 16.5 13.1 11.2 71 2.9 W 20 35 11 19 1012.7 1011.6 0.0
05/10:00am 16.0 12.2 11.2 73 2.6 W 22 33 12 18 1012.8 1011.7 0.0
05/09:30am 15.7 12.4 11.5 76 2.3 W 20 33 11 18 1012.7 1011.6 0.0
05/09:00am 14.7 10.9 11.3 80 1.8 WNW 22 32 12 17 1012.7 1011.6 0.0
05/08:30am 13.7 9.5 11.0 84 1.5 W 24 35 13 19 1012.7 1011.6 0.0
05/08:00am 12.9 9.0 12.1 95 0.4 W 24 39 13 21 1012.5 1011.4 0.0
05/07:30am 12.2 9.1 12.2 100 0.0 W 20 32 11 17 1012.3 1011.2 0.0
05/07:00am 12.0 9.0 12.0 100 0.0 WNW 19 26 10 14 1011.9 1010.8 0.0
05/06:30am 12.1 9.1 11.9 99 0.1 WNW 19 28 10 15 1011.7 1010.6 0.0
05/06:00am 12.0 9.3 11.8 99 0.1 W 17 24 9 13 1011.7 1010.6 0.0
05/05:30am 12.1 9.5 11.9 99 0.1 WNW 17 26 9 14 1011.5 1010.4 0.0
05/05:00am 12.0 9.3 11.8 99 0.1 W 17 26 9 14 1011.4 1010.3 0.0
05/04:30am 12.0 9.0 11.8 99 0.1 WNW 19 24 10 13 1011.1 1010.0 0.0
05/04:00am 11.9 9.2 11.6 98 0.2 WNW 17 28 9 15 1011.1 1010.0 0.0
05/03:30am 11.9 9.2 11.6 98 0.2 W 17 22 9 12 1011.3 1010.2 0.0
05/03:00am 12.0 9.3 11.7 98 0.2 WNW 17 26 9 14 1011.6 1010.5 0.0
05/02:30am 12.0 9.6 11.5 97 0.3 W 15 20 8 11 1012.0 1010.9 0.0
05/02:00am 12.0 9.7 11.7 98 0.2 W 15 22 8 12 1012.4 1011.3 0.0
05/01:30am 11.9 9.6 11.6 98 0.2 W 15 24 8 13 1012.7 1011.6 0.0
05/01:00am 12.1 9.8 11.8 98 0.2 W 15 20 8 11 1013.0 1012.0 0.0
05/12:30am 12.2 10.6 11.7 97 0.3 W 11 17 6 9 1013.5 1012.4 0.0
05/12:00am 12.3 10.4 11.8 97 0.3 W 13 20 7 11 1013.8 1012.7 0.0
 
Date/Time
CDT
Temp
°C
App
Temp
°C
Dew
Point
°C
Rel
Hum
%
Delta-T
°C
Wind Press
QNH
hPa
Press
MSL
hPa
Rain since
9am
mm
Dir  Spd
km/h
Gust
km/h
Spd
kts
Gust
kts
04/11:30pm 12.3 10.0 11.7 96 0.3 W 15 22 8 12 1014.0 1012.9 0.0
04/11:00pm 12.3 10.4 11.7 96 0.3 W 13 20 7 11 1014.1 1013.0 0.0
04/10:30pm 12.1 10.1 11.5 96 0.3 W 13 19 7 10 1014.1 1013.0 0.0
04/10:00pm 12.2 10.2 11.4 95 0.4 W 13 22 7 12 1014.2 1013.1 0.0
04/09:30pm 12.4 10.0 11.3 93 0.6 W 15 20 8 11 1014.2 1013.1 0.0
04/09:00pm 12.8 10.7 11.2 90 0.9 WNW 13 20 7 11 1014.0 1012.9 0.0
04/08:30pm 13.4 10.5 10.9 85 1.3 W 17 24 9 13 1014.0 1012.9 0.0
04/08:00pm 14.6 12.4 10.8 78 2.0 W 13 24 7 13 1014.1 1013.0 0.0
04/07:30pm 15.8 13.7 11.2 74 2.5 W 13 20 7 11 1014.2 1013.1 0.0
04/07:00pm 16.4 13.6 11.3 72 2.8 W 17 26 9 14 1014.3 1013.2 0.0
04/06:30pm 16.8 13.7 11.5 71 2.9 W 19 26 10 14 1014.2 1013.1 0.0
04/06:00pm 17.0 13.6 11.1 68 3.2 W 20 28 11 15 1014.3 1013.2 0.0
04/05:30pm 17.7 14.2 11.0 65 3.7 W 20 33 11 18 1014.5 1013.4 0.0
04/05:00pm 18.4 14.9 10.8 61 4.2 W 20 32 11 17 1014.5 1013.4 0.0
04/04:30pm 19.1 15.5 10.6 58 4.7 W 20 37 11 20 1014.6 1013.5 0.0
04/04:00pm 19.0 15.3 10.3 57 4.8 W 20 30 11 16 1014.6 1013.5 0.0
04/03:30pm 18.7 14.6 10.0 57 4.7 W 22 32 12 17 1014.7 1013.6 0.0
04/03:00pm 19.2 15.5 10.2 56 4.9 W 20 30 11 16 1014.8 1013.7 0.0
04/02:30pm 18.0 13.9 8.8 55 4.9 WNW 20 32 11 17 1015.0 1013.9 0.0
04/02:00pm 18.6 14.7 8.8 53 5.2 W 19 30 10 16 1015.1 1014.0 0.0
04/01:30pm 17.5 13.7 9.2 58 4.4 W 19 32 10 17 1015.3 1014.2 0.0
04/01:00pm 17.2 13.4 8.9 58 4.4 W 19 33 10 18 1015.6 1014.6 0.0
04/12:30pm 16.7 13.1 10.5 67 3.4 W 20 30 11 16 1015.7 1014.7 0.0
04/12:00pm 15.4 11.7 10.2 71 2.8 W 20 33 11 18 1015.8 1014.8 0.0
04/11:30am 15.8 12.0 9.9 68 3.1 WNW 20 41 11 22 1015.8 1014.8 0.0
04/11:00am 14.8 10.8 9.0 68 3.0 WNW 20 32 11 17 1015.8 1014.8 0.0
04/10:30am 14.4 10.5 9.6 73 2.5 W 20 33 11 18 1016.0 1015.0 0.0
04/10:00am 13.9 10.1 9.1 73 2.5 W 19 32 10 17 1016.0 1015.0 0.0
04/09:30am 13.5 9.4 8.8 73 2.4 W 20 33 11 18 1016.0 1015.0 0.0
04/09:00am 13.3 9.4 8.8 74 2.3 W 19 30 10 16 1016.3 1015.2 0.0
04/08:30am 12.8 8.8 9.1 78 1.9 W 20 33 11 18 1016.0 1015.0 0.0
04/08:00am 12.4 8.9 8.9 79 1.8 W 17 30 9 16 1015.8 1014.8 0.0
04/07:30am 11.6 8.0 8.3 80 1.7 W 17 26 9 14 1015.5 1014.5 0.0
04/07:00am 11.1 7.4 8.1 82 1.5 W 17 30 9 16 1015.2 1014.1 0.0
04/06:30am 10.9 6.7 8.1 83 1.4 W 20 32 11 17 1014.9 1013.8 0.0
04/06:00am 10.4 6.7 7.8 84 1.3 W 17 22 9 12 1014.7 1013.6 0.0
04/05:30am 10.3 6.9 7.5 83 1.4 W 15 26 8 14 1014.4 1013.3 0.0
04/05:00am 10.5 7.5 7.9 84 1.3 W 13 20 7 11 1014.3 1013.2 0.0
04/04:30am 10.5 7.5 7.9 84 1.3 W 13 24 7 13 1014.3 1013.2 0.0
04/04:00am 10.8 7.5 7.9 82 1.4 W 15 24 8 13 1014.2 1013.1 0.0
04/03:30am 10.9 8.0 8.0 82 1.4 W 13 20 7 11 1014.2 1013.1 0.0
04/03:00am 11.0 8.0 7.9 81 1.5 W 13 20 7 11 1014.4 1013.3 0.0
04/02:30am 11.0 7.7 8.2 83 1.4 W 15 22 8 12 1014.6 1013.5 0.0
04/02:00am 11.0 8.6 8.8 86 1.1 W 11 19 6 10 1014.8 1013.7 0.0
04/01:30am 10.9 8.1 8.5 85 1.2 WSW 13 20 7 11 1015.0 1013.9 0.0
04/01:00am 11.0 8.2 8.4 84 1.3 WSW 13 20 7 11 1015.2 1014.1 0.0
04/12:30am 11.0 7.8 8.4 84 1.3 WSW 15 22 8 12 1015.2 1014.1 0.0
04/12:00am 11.2 8.0 8.4 83 1.4 WSW 15 26 8 14 1015.1 1014.0 0.0
 
Date/Time
CDT
Temp
°C
App
Temp
°C
Dew
Point
°C
Rel
Hum
%
Delta-T
°C
Wind Press
QNH
hPa
Press
MSL
hPa
Rain since
9am
mm
Dir  Spd
km/h
Gust
km/h
Spd
kts
Gust
kts
03/11:30pm 11.4 7.9 8.6 83 1.4 WSW 17 26 9 14 1015.2 1014.1 0.0
03/11:00pm 11.7 9.1 9.3 85 1.2 WSW 13 28 7 15 1015.2 1014.1 0.0
03/10:30pm 11.8 9.4 10.0 89 0.9 WSW 13 19 7 10 1015.2 1014.1 0.0
03/10:00pm 12.2 10.4 10.8 91 0.7 WSW 11 17 6 9 1015.2 1014.1 0.0
03/09:30pm 12.4 9.5 11.0 91 0.7 WSW 17 30 9 16 1014.9 1013.8 0.0

Latest Capital City Observations: Canberra | Sydney | Melbourne | Brisbane | Adelaide | Perth | Hobart | Darwin

Other formats

Comma delimited format used in spreadsheet applications
http://www.bom.gov.au/fwo/IDS60901/IDS60901.94683.axf

JavaScript Object Notation format (JSON) in row-major order
http://www.bom.gov.au/fwo/IDS60901/IDS60901.94683.json

Data quality

Most of these data are generated automatically and are frequently updated. Quality checks on data are not normally performed. It is possible for incorrect values to appear. Refer to information at About Latest Weather Observations and please check the disclaimer before using these data.